Time;durP1;ratioP1;P1;durP2;ratioP2;P2;SDS_P1;SDS_P2;PMS_P1;PMS_P2;Temp;Humidity;BMP_temperature;BMP_pressure;BME280_temperature;BME280_humidity;BME280_pressure;Samples;Min_cycle;Max_cycle;Signal;HPM_P1;HPM_P2
2023/04/28 00:01:22;;;;;;;15.52;5.13;;;;;;;;;;6160301;23;20090;-96
2023/04/28 00:03:50;;;;;;;11.40;5.93;;;;;;;;;;6161761;23;20008;-96
2023/04/28 00:06:16;;;;;;;11.05;5.68;;;;;;;;;;6191752;23;20001;-96
2023/04/28 00:08:42;;;;;;;10.13;5.32;;;;;;;;;;6163183;23;20016;-95
2023/04/28 00:11:15;;;;;;;10.80;5.65;;;;;;;;;;6161219;23;20004;-95
2023/04/28 00:13:41;;;;;;;14.10;5.30;;;;;;;;;;6186050;23;20005;-96
2023/04/28 00:16:07;;;;;;;11.90;6.15;;;;;;;;;;6185017;23;20199;-96
2023/04/28 00:18:40;;;;;;;13.90;5.45;;;;;;;;;;6169166;22;20016;-96
2023/04/28 00:21:13;;;;;;;12.68;5.60;;;;;;;;;;6159687;23;20411;-95
2023/04/28 00:23:39;;;;;;;11.25;5.85;;;;;;;;;;6163962;23;20013;-94
2023/04/28 00:26:07;;;;;;;9.38;5.95;;;;;;;;;;6159846;23;20060;-96
2023/04/28 00:28:33;;;;;;;14.30;6.00;;;;;;;;;;6160740;23;20012;-95
2023/04/28 00:30:59;;;;;;;9.50;5.45;;;;;;;;;;6157721;23;20075;-96
2023/04/28 00:33:28;;;;;;;12.93;5.57;;;;;;;;;;6159603;23;20009;-96
2023/04/28 00:36:01;;;;;;;15.10;5.80;;;;;;;;;;6158927;23;20128;-96
2023/04/28 00:38:27;;;;;;;11.05;5.90;;;;;;;;;;6161637;23;20036;-96
2023/04/28 00:40:53;;;;;;;13.43;5.78;;;;;;;;;;6160585;23;20491;-95
2023/04/28 00:43:20;;;;;;;9.50;4.82;;;;;;;;;;6158637;23;20021;-95
2023/04/28 00:45:46;;;;;;;14.27;5.43;;;;;;;;;;6158437;23;20069;-95
2023/04/28 00:48:13;;;;;;;9.98;5.53;;;;;;;;;;6158942;23;20012;-95
2023/04/28 00:50:39;;;;;;;10.45;5.07;;;;;;;;;;6185066;23;20009;-96
2023/04/28 00:53:05;;;;;;;7.38;4.07;;;;;;;;;;6184587;23;20029;-96
2023/04/28 00:55:32;;;;;;;7.20;4.78;;;;;;;;;;6158924;23;20057;-96
2023/04/28 00:57:59;;;;;;;11.50;6.57;;;;;;;;;;6183770;23;20009;-96
2023/04/28 01:00:25;;;;;;;10.88;5.35;;;;;;;;;;6156013;23;20005;-94
2023/04/28 01:02:57;;;;;;;12.57;5.45;;;;;;;;;;6158272;23;20033;-95
2023/04/28 01:05:28;;;;;;;11.90;5.15;;;;;;;;;;6181702;23;20056;-96
2023/04/28 01:07:54;;;;;;;9.63;5.45;;;;;;;;;;6183634;23;20012;-96
2023/04/28 01:10:23;;;;;;;10.60;4.28;;;;;;;;;;6158468;23;20017;-96
2023/04/28 01:12:49;;;;;;;13.38;5.18;;;;;;;;;;6184498;23;20357;-96
2023/04/28 01:15:18;;;;;;;15.27;5.97;;;;;;;;;;6158596;23;20021;-96
2023/04/28 01:17:45;;;;;;;11.00;5.55;;;;;;;;;;6186523;22;20009;-96
2023/04/28 01:20:11;;;;;;;10.82;4.97;;;;;;;;;;6182861;23;20005;-95
2023/04/28 01:22:43;;;;;;;14.32;6.28;;;;;;;;;;6157253;23;20016;-96
2023/04/28 01:25:09;;;;;;;9.82;5.13;;;;;;;;;;6155016;23;20376;-95
2023/04/28 01:27:35;;;;;;;9.82;5.47;;;;;;;;;;6159393;23;20104;-95
2023/04/28 01:30:03;;;;;;;17.40;6.10;;;;;;;;;;6160690;23;20023;-94
2023/04/28 01:32:30;;;;;;;10.38;5.68;;;;;;;;;;6185741;23;20032;-93
2023/04/28 01:34:56;;;;;;;10.50;5.53;;;;;;;;;;6163502;23;20015;-94
2023/04/28 01:37:22;;;;;;;11.27;6.07;;;;;;;;;;6161387;23;20025;-94
2023/04/28 01:39:51;;;;;;;8.63;4.93;;;;;;;;;;6186837;23;20005;-94
2023/04/28 01:42:23;;;;;;;12.38;5.85;;;;;;;;;;6189013;23;20036;-95
2023/04/28 01:44:49;;;;;;;13.82;5.88;;;;;;;;;;6188897;23;20083;-95
2023/04/28 01:47:25;;;;;;;10.68;5.90;;;;;;;;;;6162803;23;20651;-95
2023/04/28 01:49:51;;;;;;;12.00;5.22;;;;;;;;;;6162138;23;20525;-95
2023/04/28 01:52:21;;;;;;;10.38;6.20;;;;;;;;;;6161166;23;20013;-95
2023/04/28 01:54:48;;;;;;;19.55;7.32;;;;;;;;;;6187368;23;20249;-94
2023/04/28 01:57:14;;;;;;;16.95;7.25;;;;;;;;;;6163648;23;20052;-95
2023/04/28 01:59:41;;;;;;;10.70;5.50;;;;;;;;;;6163581;23;20045;-95
2023/04/28 02:02:07;;;;;;;13.05;6.22;;;;;;;;;;6188251;23;20029;-95
2023/04/28 02:04:33;;;;;;;13.90;6.68;;;;;;;;;;6187418;23;20005;-95
2023/04/28 02:06:59;;;;;;;14.15;6.45;;;;;;;;;;6189242;23;20013;-96
2023/04/28 02:09:26;;;;;;;13.15;6.60;;;;;;;;;;6189269;23;20020;-95
2023/04/28 02:11:52;;;;;;;13.80;6.70;;;;;;;;;;6165211;23;20008;-95
2023/04/28 02:14:31;;;;;;;10.02;5.63;;;;;;;;;;6163120;23;20068;-95
2023/04/28 02:17:02;;;;;;;18.85;7.60;;;;;;;;;;6163157;23;20027;-94
2023/04/28 02:19:34;;;;;;;17.20;7.30;;;;;;;;;;6193562;22;20044;-94
2023/04/28 02:22:00;;;;;;;13.82;6.97;;;;;;;;;;6191047;23;20040;-94
2023/04/28 02:24:30;;;;;;;14.98;7.10;;;;;;;;;;6166148;23;20112;-95
2023/04/28 02:27:01;;;;;;;19.13;8.02;;;;;;;;;;6166417;23;20013;-95
2023/04/28 02:29:42;;;;;;;12.45;7.07;;;;;;;;;;6193210;23;20088;-94
2023/04/28 02:32:12;;;;;;;22.17;8.70;;;;;;;;;;6192469;23;20008;-94
2023/04/28 02:34:38;;;;;;;17.40;8.10;;;;;;;;;;6192991;23;20004;-95
2023/04/28 02:37:04;;;;;;;19.17;9.10;;;;;;;;;;6166954;23;20016;-95
2023/04/28 02:39:31;;;;;;;19.95;9.30;;;;;;;;;;6166423;23;20534;-95
2023/04/28 02:42:04;;;;;;;21.30;10.27;;;;;;;;;;6192788;23;20096;-96
2023/04/28 02:44:36;;;;;;;20.63;9.75;;;;;;;;;;6214758;23;20071;-94
2023/04/28 02:47:03;;;;;;;26.10;10.73;;;;;;;;;;6167103;23;20036;-94
2023/04/28 02:49:29;;;;;;;20.33;8.02;;;;;;;;;;6190743;23;20040;-94
2023/04/28 02:51:57;;;;;;;19.23;8.23;;;;;;;;;;6218128;23;20039;-95
2023/04/28 02:54:26;;;;;;;20.92;10.23;;;;;;;;;;6192001;23;20032;-95
2023/04/28 02:57:05;;;;;;;23.23;9.73;;;;;;;;;;6191456;23;20004;-94
2023/04/28 02:59:32;;;;;;;20.92;9.73;;;;;;;;;;6166806;23;20016;-95
2023/04/28 03:02:00;;;;;;;22.05;9.00;;;;;;;;;;6215177;23;20103;-95
2023/04/28 03:04:26;;;;;;;19.88;9.02;;;;;;;;;;6192230;23;20060;-96
2023/04/28 03:06:53;;;;;;;23.02;10.63;;;;;;;;;;6191875;23;20013;-95
2023/04/28 03:09:19;;;;;;;22.17;9.70;;;;;;;;;;6217857;23;20291;-94
2023/04/28 03:11:45;;;;;;;22.52;10.70;;;;;;;;;;6166585;23;20020;-95
2023/04/28 03:14:11;;;;;;;24.23;9.10;;;;;;;;;;6219217;23;20040;-95
2023/04/28 03:16:50;;;;;;;31.13;10.52;;;;;;;;;;6167940;23;20024;-95
2023/04/28 03:19:31;;;;;;;22.95;10.32;;;;;;;;;;6177963;22;20013;-95
2023/04/28 03:22:00;;;;;;;26.52;11.80;;;;;;;;;;6164767;23;20009;-96
2023/04/28 03:24:26;;;;;;;25.67;10.60;;;;;;;;;;6188039;23;20013;-95
2023/04/28 03:27:02;;;;;;;21.50;10.00;;;;;;;;;;6190104;23;20347;-96
2023/04/28 03:29:33;;;;;;;28.55;10.95;;;;;;;;;;6191776;23;20009;-95
2023/04/28 03:32:00;;;;;;;29.17;11.90;;;;;;;;;;6163955;23;20005;-95
2023/04/28 03:34:27;;;;;;;22.25;10.68;;;;;;;;;;6189242;23;20044;-95
2023/04/28 03:37:00;;;;;;;32.78;12.60;;;;;;;;;;6163965;23;20016;-96
2023/04/28 03:39:33;;;;;;;30.63;12.25;;;;;;;;;;6163153;23;20024;-94
2023/04/28 03:42:00;;;;;;;32.10;10.65;;;;;;;;;;6187590;23;20013;-95
2023/04/28 03:44:26;;;;;;;30.45;12.18;;;;;;;;;;6162645;23;20005;-95
2023/04/28 03:46:53;;;;;;;28.88;11.43;;;;;;;;;;6188196;23;20013;-96
2023/04/28 03:49:28;;;;;;;28.33;12.50;;;;;;;;;;6164088;23;20061;-96
2023/04/28 03:51:56;;;;;;;29.35;10.68;;;;;;;;;;6164136;23;20009;-96
2023/04/28 03:54:25;;;;;;;22.45;10.95;;;;;;;;;;6163527;23;20072;-96
2023/04/28 03:57:03;;;;;;;25.23;11.10;;;;;;;;;;6163340;23;20009;-95
2023/04/28 03:59:32;;;;;;;26.35;11.30;;;;;;;;;;6190135;23;20087;-96
2023/04/28 04:01:58;;;;;;;27.15;11.77;;;;;;;;;;6164802;23;20009;-95
2023/04/28 04:04:24;;;;;;;27.75;11.98;;;;;;;;;;6189573;23;20005;-96
2023/04/28 04:06:51;;;;;;;26.98;12.05;;;;;;;;;;6163700;23;20013;-96
2023/04/28 04:09:17;;;;;;;23.80;10.45;;;;;;;;;;6166651;23;20087;-95
2023/04/28 04:11:44;;;;;;;19.02;10.10;;;;;;;;;;6190280;23;20132;-95
2023/04/28 04:14:10;;;;;;;30.98;12.13;;;;;;;;;;6192020;23;20009;-95
2023/04/28 04:16:36;;;;;;;27.92;11.70;;;;;;;;;;6191475;23;20013;-94
2023/04/28 04:19:02;;;;;;;31.20;11.70;;;;;;;;;;6216315;22;20008;-93
2023/04/28 04:21:29;;;;;;;27.55;10.95;;;;;;;;;;6228313;23;20005;-95
2023/04/28 04:23:56;;;;;;;24.75;10.30;;;;;;;;;;6229414;23;19985;-95
2023/04/28 04:26:22;;;;;;;23.83;11.23;;;;;;;;;;6201263;23;20008;-94
2023/04/28 04:28:48;;;;;;;22.77;11.27;;;;;;;;;;6229006;23;20000;-96
2023/04/28 04:31:21;;;;;;;28.90;11.65;;;;;;;;;;6227308;23;20004;-95
2023/04/28 04:36:44;;;;;;;25.77;11.48;;;;;;;;;;6195606;23;20105;-94
2023/04/28 04:39:12;;;;;;;23.00;11.48;;;;;;;;;;6194647;23;20012;-95
2023/04/28 04:41:38;;;;;;;24.05;11.15;;;;;;;;;;6194812;23;20091;-96
2023/04/28 04:44:05;;;;;;;22.65;11.77;;;;;;;;;;6219194;23;20009;-96
2023/04/28 04:46:31;;;;;;;22.75;11.25;;;;;;;;;;6220186;23;20459;-95
2023/04/28 04:48:57;;;;;;;24.17;10.48;;;;;;;;;;6220039;23;20013;-95
2023/04/28 04:51:25;;;;;;;32.33;11.15;;;;;;;;;;6218400;23;20473;-96
2023/04/28 04:53:59;;;;;;;28.63;10.63;;;;;;;;;;6195153;23;20415;-96
2023/04/28 04:56:27;;;;;;;23.00;10.73;;;;;;;;;;6216905;23;20008;-95
2023/04/28 04:58:53;;;;;;;23.33;10.82;;;;;;;;;;6192837;23;20070;-96
2023/04/28 05:01:19;;;;;;;27.90;11.18;;;;;;;;;;6219353;23;20009;-95
2023/04/28 05:03:45;;;;;;;21.63;10.70;;;;;;;;;;6219353;23;20070;-96
2023/04/28 05:06:11;;;;;;;19.25;9.80;;;;;;;;;;6222226;23;20112;-96
2023/04/28 05:08:46;;;;;;;33.22;11.77;;;;;;;;;;6195536;23;20501;-96
2023/04/28 05:11:17;;;;;;;22.63;10.07;;;;;;;;;;6195593;23;20051;-95
2023/04/28 05:16:30;;;;;;;20.00;9.48;;;;;;;;;;6176959;23;20446;-96
2023/04/28 05:18:56;;;;;;;20.27;9.75;;;;;;;;;;6171448;23;20035;-96
2023/04/28 05:21:22;;;;;;;21.75;10.23;;;;;;;;;;6168400;23;20015;-96
2023/04/28 05:26:40;;;;;;;23.50;10.68;;;;;;;;;;6173056;23;20019;-96
2023/04/28 05:29:07;;;;;;;21.30;9.25;;;;;;;;;;6193583;23;20012;-96
2023/04/28 05:31:33;;;;;;;17.95;9.02;;;;;;;;;;6167484;23;20450;-95
2023/04/28 05:33:59;;;;;;;23.20;9.32;;;;;;;;;;6168582;23;20064;-96
2023/04/28 05:36:32;;;;;;;19.80;9.60;;;;;;;;;;6170826;23;20012;-96
2023/04/28 05:38:59;;;;;;;21.08;9.57;;;;;;;;;;6194715;23;20028;-96
2023/04/28 05:41:25;;;;;;;21.77;9.95;;;;;;;;;;6191320;23;20012;-96
2023/04/28 05:43:51;;;;;;;25.48;10.30;;;;;;;;;;6192058;23;20008;-96
2023/04/28 05:46:17;;;;;;;20.75;9.45;;;;;;;;;;6217865;23;20521;-96
2023/04/28 05:48:47;;;;;;;16.85;7.78;;;;;;;;;;6173540;23;20566;-96
2023/04/28 05:51:16;;;;;;;18.27;8.85;;;;;;;;;;6197730;23;20005;-96
2023/04/28 05:53:56;;;;;;;27.55;9.77;;;;;;;;;;6175525;23;20027;-96
2023/04/28 05:56:31;;;;;;;18.27;8.35;;;;;;;;;;6201376;23;20008;-96
2023/04/28 05:58:59;;;;;;;24.38;8.10;;;;;;;;;;6175348;23;20082;-96
2023/04/28 06:01:34;;;;;;;18.23;8.10;;;;;;;;;;6223395;23;20007;-96
2023/04/28 06:04:08;;;;;;;24.50;9.30;;;;;;;;;;6173187;23;20020;-96
2023/04/28 06:06:36;;;;;;;27.25;9.60;;;;;;;;;;6197360;23;20029;-96
2023/04/28 06:09:05;;;;;;;17.75;8.07;;;;;;;;;;6172941;23;20016;-96
2023/04/28 06:12:06;;;;;;;21.65;8.60;;;;;;;;;;6176245;23;20107;-96
2023/04/28 06:14:36;;;;;;;19.92;8.23;;;;;;;;;;6197849;23;20279;-96
2023/04/28 06:17:39;;;;;;;11.98;6.82;;;;;;;;;;6174894;23;20024;-96
2023/04/28 06:20:11;;;;;;;15.05;8.20;;;;;;;;;;6200822;22;20024;-96
2023/04/28 06:22:50;;;;;;;17.83;8.35;;;;;;;;;;6198396;23;20016;-96
2023/04/28 06:25:50;;;;;;;;;;;;;;;;;;;;;
2023/04/28 06:28:24;;;;;;;18.40;8.75;;;;;;;;;;6193821;23;20012;-96
2023/04/28 06:30:51;;;;;;;17.27;7.97;;;;;;;;;;6198864;23;20013;-96
2023/04/28 06:33:30;;;;;;;25.23;8.32;;;;;;;;;;6200193;23;19996;-96
2023/04/28 06:36:12;;;;;;;18.42;8.75;;;;;;;;;;6197900;23;20059;-96
2023/04/28 06:38:42;;;;;;;16.08;8.38;;;;;;;;;;6198618;23;20008;-96
2023/04/28 06:41:21;;;;;;;15.73;7.43;;;;;;;;;;6222656;23;20514;-96
2023/04/28 06:43:49;;;;;;;17.77;8.32;;;;;;;;;;6192926;23;20008;-96
2023/04/28 06:46:22;;;;;;;20.52;8.27;;;;;;;;;;6174965;23;20059;-96
2023/04/28 06:48:57;;;;;;;21.45;8.48;;;;;;;;;;6174406;23;20023;-96
2023/04/28 06:51:25;;;;;;;15.98;7.50;;;;;;;;;;6173884;23;20039;-96
2023/04/28 06:53:54;;;;;;;21.25;8.70;;;;;;;;;;6177077;23;20013;-96
2023/04/28 06:56:23;;;;;;;18.88;8.82;;;;;;;;;;6172769;23;20012;-96
2023/04/28 06:58:52;;;;;;;18.70;8.98;;;;;;;;;;6170761;23;20016;-96
2023/04/28 07:01:21;;;;;;;15.57;7.80;;;;;;;;;;6172323;23;20032;-96
2023/04/28 07:03:51;;;;;;;18.05;7.97;;;;;;;;;;6176619;23;20191;-96
2023/04/28 07:06:31;;;;;;;;;;;;;;;;;;;;;
2023/04/28 07:08:58;;;;;;;19.10;8.43;;;;;;;;;;6195375;23;20032;-96
2023/04/28 07:11:25;;;;;;;14.93;7.95;;;;;;;;;;6196518;23;20031;-96
2023/04/28 07:13:51;;;;;;;16.38;8.70;;;;;;;;;;6171619;23;20013;-96
2023/04/28 07:16:21;;;;;;;13.43;8.00;;;;;;;;;;6169471;23;20004;-96
2023/04/28 07:18:48;;;;;;;13.63;7.85;;;;;;;;;;6218606;22;20057;-96
2023/04/28 07:21:16;;;;;;;15.77;7.47;;;;;;;;;;6165686;23;20009;-96
2023/04/28 07:23:42;;;;;;;19.67;8.68;;;;;;;;;;6166053;23;20013;-96
2023/04/28 07:26:35;;;;;;;13.60;7.65;;;;;;;;;;6192542;23;20005;-96
2023/04/28 07:29:14;;;;;;;17.60;7.22;;;;;;;;;;6193707;23;20395;-96
2023/04/28 07:31:40;;;;;;;13.43;7.60;;;;;;;;;;6194984;23;20009;-96
2023/04/28 07:37:19;;;;;;;18.55;8.10;;;;;;;;;;6057602;23;20035;-95
2023/04/28 07:39:47;;;;;;;17.55;8.60;;;;;;;;;;6053940;23;20034;-96
2023/04/28 07:42:13;;;;;;;16.77;7.90;;;;;;;;;;6077067;23;20501;-96
2023/04/28 07:44:42;;;;;;;17.05;8.40;;;;;;;;;;6076921;23;20013;-96
2023/04/28 07:47:09;;;;;;;16.15;8.18;;;;;;;;;;6056506;23;20022;-96
2023/04/28 07:49:35;;;;;;;17.92;7.07;;;;;;;;;;6171976;23;20100;-96
2023/04/28 07:52:02;;;;;;;18.98;8.40;;;;;;;;;;6172733;23;20009;-96
2023/04/28 07:54:28;;;;;;;24.77;9.70;;;;;;;;;;6195107;23;20019;-96
2023/04/28 07:57:12;;;;;;;16.95;8.05;;;;;;;;;;6195545;23;20009;-96
2023/04/28 07:59:48;;;;;;;17.15;8.20;;;;;;;;;;6195579;23;20005;-96
2023/04/28 08:02:26;;;;;;;18.15;8.38;;;;;;;;;;6195563;23;20025;-96
2023/04/28 08:05:01;;;;;;;18.55;8.00;;;;;;;;;;6171589;23;20013;-96
2023/04/28 08:07:28;;;;;;;19.65;8.20;;;;;;;;;;6170603;23;20017;-96
2023/04/28 08:12:55;;;;;;;14.48;7.75;;;;;;;;;;6161473;23;20048;-96
2023/04/28 08:15:35;;;;;;;18.08;8.63;;;;;;;;;;6198618;23;20009;-95
2023/04/28 08:18:01;;;;;;;24.00;8.15;;;;;;;;;;6194029;23;20435;-96
2023/04/28 08:20:29;;;;;;;19.38;7.95;;;;;;;;;;6200777;22;20017;-96
2023/04/28 08:22:59;;;;;;;19.05;8.80;;;;;;;;;;6169494;23;20013;-96
2023/04/28 08:25:28;;;;;;;17.27;8.93;;;;;;;;;;6180189;23;20021;-96
2023/04/28 08:27:57;;;;;;;20.20;9.52;;;;;;;;;;6201674;23;20139;-96
2023/04/28 08:30:33;;;;;;;22.55;9.57;;;;;;;;;;6195738;23;20013;-96
2023/04/28 08:36:07;;;;;;;17.85;8.38;;;;;;;;;;6194816;23;20089;-96
2023/04/28 08:38:33;;;;;;;18.55;8.35;;;;;;;;;;6168971;23;20069;-96
2023/04/28 08:41:00;;;;;;;17.17;8.63;;;;;;;;;;6170414;23;20299;-96
2023/04/28 08:43:29;;;;;;;16.55;9.23;;;;;;;;;;6170096;23;20005;-96
2023/04/28 08:45:56;;;;;;;15.15;8.60;;;;;;;;;;6173412;23;20013;-95
2023/04/28 08:48:38;;;;;;;20.48;8.93;;;;;;;;;;6199246;23;20028;-96
2023/04/28 08:51:06;;;;;;;23.33;8.75;;;;;;;;;;6197419;23;20109;-96
2023/04/28 08:53:39;;;;;;;14.63;8.23;;;;;;;;;;6199280;23;20037;-96
2023/04/28 08:56:06;;;;;;;16.17;8.30;;;;;;;;;;6200407;23;20560;-95
2023/04/28 08:58:43;;;;;;;16.50;8.93;;;;;;;;;;6197840;23;20009;-96
2023/04/28 09:01:09;;;;;;;16.58;8.73;;;;;;;;;;6200044;23;20330;-96
2023/04/28 09:03:36;;;;;;;16.95;9.13;;;;;;;;;;6170872;23;20001;-96
2023/04/28 09:06:02;;;;;;;20.40;8.70;;;;;;;;;;6172221;23;20009;-96
2023/04/28 09:08:47;;;;;;;;;;;;;;;;;;;;;
2023/04/28 09:11:34;;;;;;;16.52;9.27;;;;;;;;;;6198077;23;20024;-96
2023/04/28 09:14:42;;;;;;;21.40;8.57;;;;;;;;;;6174377;23;20013;-96
2023/04/28 09:17:15;;;;;;;19.20;9.93;;;;;;;;;;6128526;23;20384;-96
2023/04/28 09:20:09;;;;;;;19.98;9.13;;;;;;;;;;6216400;22;20017;-96
2023/04/28 09:23:07;;;;;;;;;;;;;;;;;;;;;
2023/04/28 09:25:37;;;;;;;16.67;8.93;;;;;;;;;;6197984;23;20589;-96
2023/04/28 09:28:22;;;;;;;17.00;9.00;;;;;;;;;;6171560;23;20017;-96
2023/04/28 09:37:22;;;;;;;16.52;8.45;;;;;;;;;;6142119;23;20054;-96
2023/04/28 09:40:40;;;;;;;;;;;;;;;;;;;;;
2023/04/28 09:43:26;;;;;;;17.20;8.27;;;;;;;;;;6137698;23;20009;-96
2023/04/28 09:45:52;;;;;;;16.57;8.73;;;;;;;;;;6092814;23;20005;-96
2023/04/28 09:48:49;;;;;;;13.88;8.25;;;;;;;;;;6200321;23;20015;-96
2023/04/28 09:51:23;;;;;;;13.30;7.78;;;;;;;;;;6155899;23;20171;-96
2023/04/28 09:56:58;;;;;;;17.25;8.02;;;;;;;;;;6109312;23;20018;-96
2023/04/28 09:59:34;;;;;;;14.25;7.82;;;;;;;;;;6063273;23;20452;-96
2023/04/28 10:17:39;;;;;;;13.73;8.07;;;;;;;;;;6195704;22;19931;-94
2023/04/28 10:20:15;;;;;;;14.20;8.17;;;;;;;;;;6223453;23;20026;-94
2023/04/28 10:22:51;;;;;;;18.38;8.45;;;;;;;;;;6172595;23;20531;-93
2023/04/28 10:25:24;;;;;;;16.30;8.48;;;;;;;;;;6196892;23;20009;-93
2023/04/28 10:27:51;;;;;;;15.18;8.35;;;;;;;;;;6197759;23;20081;-94
2023/04/28 10:30:20;;;;;;;16.90;8.35;;;;;;;;;;6199859;23;20373;-94
2023/04/28 10:32:50;;;;;;;18.00;7.95;;;;;;;;;;6201493;23;20004;-89
2023/04/28 10:35:35;;;;;;;18.02;8.32;;;;;;;;;;6199062;23;20351;-94
2023/04/28 10:41:41;;;;;;;15.38;8.30;;;;;;;;;;6232489;22;20078;-94
2023/04/28 10:44:26;;;;;;;20.75;8.63;;;;;;;;;;6087176;23;20077;-95
2023/04/28 10:47:10;;;;;;;13.77;8.10;;;;;;;;;;6170869;23;20482;-93
2023/04/28 10:50:16;;;;;;;18.55;8.23;;;;;;;;;;6167621;23;20072;-92
2023/04/28 10:52:52;;;;;;;13.52;8.35;;;;;;;;;;6167417;23;20005;-93
2023/04/28 10:55:38;;;;;;;12.05;8.38;;;;;;;;;;6168631;23;20005;-94
2023/04/28 10:58:17;;;;;;;15.40;8.93;;;;;;;;;;6166706;23;20016;-93
2023/04/28 11:00:53;;;;;;;14.27;8.80;;;;;;;;;;6191886;23;20029;-93
2023/04/28 11:03:38;;;;;;;12.85;7.72;;;;;;;;;;6166626;23;20005;-94
2023/04/28 11:09:52;;;;;;;;;;;;;;;;;;;;;
2023/04/28 11:15:32;;;;;;;19.80;9.50;;;;;;;;;;6130055;23;20024;-91
2023/04/28 11:18:06;;;;;;;15.88;9.80;;;;;;;;;;6119114;23;20077;-93
2023/04/28 11:20:41;;;;;;;17.92;10.70;;;;;;;;;;6164073;23;20321;-93
2023/04/28 11:23:08;;;;;;;22.70;10.00;;;;;;;;;;6164433;23;20076;-94
2023/04/28 11:25:53;;;;;;;24.85;10.52;;;;;;;;;;6163944;23;20029;-93
2023/04/28 11:28:29;;;;;;;20.35;10.07;;;;;;;;;;6220822;23;20036;-92
2023/04/28 11:37:26;;;;;;;20.33;10.63;;;;;;;;;;6103587;23;20014;-93
2023/04/28 11:40:35;;;;;;;;;;;;;;;;;;;;;
2023/04/28 11:56:38;;;;;;;21.08;10.98;;;;;;;;;;6254064;22;20020;-93
2023/04/28 11:59:07;;;;;;;22.55;11.48;;;;;;;;;;6252433;23;20005;-94
2023/04/28 12:12:03;;;;;;;19.27;11.27;;;;;;;;;;6189192;22;20088;-94
2023/04/28 12:14:55;;;;;;;20.30;11.38;;;;;;;;;;6196959;23;20088;-93
2023/04/28 12:17:54;;;;;;;21.23;11.20;;;;;;;;;;6220757;23;20083;-93
2023/04/28 12:20:39;;;;;;;24.20;12.05;;;;;;;;;;6236685;23;19985;-93
2023/04/28 12:23:17;;;;;;;26.02;11.27;;;;;;;;;;6211734;22;20020;-93
2023/04/28 12:26:29;;;;;;;22.83;10.57;;;;;;;;;;6186775;23;20009;-93
2023/04/28 12:28:58;;;;;;;20.60;11.88;;;;;;;;;;6092792;23;20058;-94
2023/04/28 12:31:29;;;;;;;20.27;10.13;;;;;;;;;;6179144;23;20075;-93
2023/04/28 12:40:07;;;;;;;27.17;12.45;;;;;;;;;;6106201;23;20037;-94
2023/04/28 12:42:40;;;;;;;21.80;11.82;;;;;;;;;;6163323;23;20024;-95
2023/04/28 12:45:08;;;;;;;24.25;11.43;;;;;;;;;;6192876;23;20016;-94
2023/04/28 12:47:41;;;;;;;24.63;12.02;;;;;;;;;;6193709;23;20614;-94
2023/04/28 12:50:08;;;;;;;24.23;12.52;;;;;;;;;;6170443;23;20008;-94
2023/04/28 12:52:36;;;;;;;19.88;11.98;;;;;;;;;;6175531;22;20023;-93
2023/04/28 12:58:08;;;;;;;17.55;10.93;;;;;;;;;;6165172;23;20017;-94
2023/04/28 13:03:52;;;;;;;22.83;12.60;;;;;;;;;;6172500;23;20025;-93
2023/04/28 13:06:21;;;;;;;23.63;11.93;;;;;;;;;;6190766;23;20028;-93
2023/04/28 13:08:57;;;;;;;20.92;11.93;;;;;;;;;;6190402;23;20065;-94
2023/04/28 13:11:25;;;;;;;;;;;;;;;;;;6166544;23;20079;-94
2023/04/28 13:13:56;;;;;;;22.23;11.88;;;;;;;;;;6193310;23;20445;-93
2023/04/28 13:16:47;;;;;;;21.20;11.27;;;;;;;;;;6191941;23;20029;-93
2023/04/28 13:19:14;;;;;;;24.38;11.73;;;;;;;;;;6200235;23;20035;-94
2023/04/28 13:21:57;;;;;;;24.75;13.00;;;;;;;;;;6174110;23;20020;-94
2023/04/28 13:42:45;;;;;;;19.92;12.43;;;;;;;;;;6172507;22;20032;-93
2023/04/28 13:45:20;;;;;;;27.85;13.13;;;;;;;;;;6137302;23;20040;-94
2023/04/28 13:47:49;;;;;;;27.17;13.00;;;;;;;;;;6113861;23;20013;-94
2023/04/28 13:50:35;;;;;;;20.85;13.55;;;;;;;;;;6138238;23;20006;-95
2023/04/28 13:55:58;;;;;;;19.67;11.60;;;;;;;;;;6165405;23;20039;-94
2023/04/28 13:58:35;;;;;;;22.35;12.80;;;;;;;;;;6137672;23;20025;-95
2023/04/28 14:01:06;;;;;;;23.85;11.63;;;;;;;;;;6137764;23;20036;-94
2023/04/28 14:03:43;;;;;;;24.50;13.60;;;;;;;;;;6137580;23;20352;-95
2023/04/28 14:06:12;;;;;;;22.60;13.35;;;;;;;;;;6136940;23;20006;-93
2023/04/28 14:08:38;;;;;;;23.75;12.55;;;;;;;;;;6114941;23;20392;-94
2023/04/28 14:11:04;;;;;;;29.88;13.35;;;;;;;;;;6112876;23;20466;-94
2023/04/28 14:13:31;;;;;;;25.33;13.85;;;;;;;;;;6137367;23;20044;-93
2023/04/28 14:16:06;;;;;;;25.65;14.70;;;;;;;;;;6136180;23;20480;-94
2023/04/28 14:18:35;;;;;;;28.73;13.68;;;;;;;;;;6113551;23;20036;-94
2023/04/28 14:21:07;;;;;;;27.90;14.15;;;;;;;;;;6113756;23;20014;-94
2023/04/28 14:23:45;;;;;;;26.85;14.38;;;;;;;;;;6136738;23;20030;-94
2023/04/28 14:29:46;;;;;;;30.98;16.45;;;;;;;;;;6165635;23;20013;-95
2023/04/28 14:32:19;;;;;;;24.80;14.45;;;;;;;;;;6129133;23;20002;-95
2023/04/28 14:35:16;;;;;;;;;;;;;;;;;;;;;
2023/04/28 14:37:49;;;;;;;28.55;15.25;;;;;;;;;;6134357;23;20037;-96
2023/04/28 14:40:18;;;;;;;25.60;15.27;;;;;;;;;;6137985;23;20010;-96
2023/04/28 14:42:51;;;;;;;27.17;16.55;;;;;;;;;;6154060;23;20017;-95
2023/04/28 14:50:59;;;;;;;32.50;17.02;;;;;;;;;;6227433;22;20005;-96
2023/04/28 14:53:34;;;;;;;39.20;17.23;;;;;;;;;;6136128;23;20486;-94
2023/04/28 14:56:21;;;;;;;35.40;16.75;;;;;;;;;;6161484;23;20006;-93
2023/04/28 14:59:10;;;;;;;36.53;16.92;;;;;;;;;;6160883;23;20073;-93
2023/04/28 15:01:57;;;;;;;39.42;17.65;;;;;;;;;;6139326;23;20372;-95
2023/04/28 15:04:29;;;;;;;32.63;17.50;;;;;;;;;;6133733;23;20005;-95
2023/04/28 15:07:07;;;;;;;32.33;17.67;;;;;;;;;;6110024;23;20019;-94
2023/04/28 15:09:40;;;;;;;37.20;17.25;;;;;;;;;;6135416;23;20033;-95
2023/04/28 15:12:41;;;;;;;33.47;18.00;;;;;;;;;;6161849;23;20009;-93
2023/04/28 15:18:21;;;;;;;;;;;;;;;;;;;;;
2023/04/28 15:20:48;;;;;;;32.13;18.88;;;;;;;;;;6162267;23;20044;-95
2023/04/28 15:26:03;;;;;;;32.63;18.33;;;;;;;;;;6146173;23;20033;-92
2023/04/28 15:28:29;;;;;;;35.10;19.75;;;;;;;;;;6083680;23;20021;-91
2023/04/28 15:30:56;;;;;;;36.28;17.30;;;;;;;;;;6105354;23;20010;-94
2023/04/28 15:33:23;;;;;;;35.13;19.00;;;;;;;;;;6102727;23;20006;-93
2023/04/28 15:35:49;;;;;;;41.47;20.02;;;;;;;;;;6080741;23;20012;-94
2023/04/28 15:38:16;;;;;;;38.70;18.00;;;;;;;;;;6080615;23;20010;-94
2023/04/28 15:40:43;;;;;;;28.27;16.38;;;;;;;;;;6081629;23;20016;-94
2023/04/28 15:43:09;;;;;;;34.92;18.55;;;;;;;;;;6103767;23;20290;-94
2023/04/28 15:45:36;;;;;;;41.00;18.40;;;;;;;;;;6079859;23;20006;-93
2023/04/28 15:48:04;;;;;;;31.17;16.92;;;;;;;;;;6104046;23;20017;-94
2023/04/28 15:50:36;;;;;;;27.58;16.50;;;;;;;;;;6105338;23;20511;-94
2023/04/28 15:53:03;;;;;;;35.92;17.13;;;;;;;;;;6130977;23;20122;-94
2023/04/28 15:55:36;;;;;;;31.38;17.85;;;;;;;;;;6080975;23;20014;-93
2023/04/28 15:58:02;;;;;;;40.15;17.70;;;;;;;;;;6081182;23;20010;-93
2023/04/28 16:00:29;;;;;;;38.47;18.35;;;;;;;;;;6080288;23;20010;-94
2023/04/28 16:02:56;;;;;;;31.67;17.10;;;;;;;;;;6081173;23;20013;-95
2023/04/28 16:05:23;;;;;;;33.95;18.48;;;;;;;;;;6080553;23;20341;-95
2023/04/28 16:07:51;;;;;;;38.40;18.10;;;;;;;;;;6080224;23;20114;-95
2023/04/28 16:10:18;;;;;;;33.80;18.52;;;;;;;;;;6130036;23;20017;-95
2023/04/28 16:12:44;;;;;;;35.17;18.73;;;;;;;;;;6080304;23;20018;-94
2023/04/28 16:15:11;;;;;;;28.00;16.02;;;;;;;;;;6105609;23;20017;-94
2023/04/28 16:17:40;;;;;;;39.38;20.13;;;;;;;;;;6082109;23;20014;-94
2023/04/28 16:20:07;;;;;;;37.42;19.83;;;;;;;;;;6106520;23;20021;-94
2023/04/28 16:22:37;;;;;;;36.90;19.08;;;;;;;;;;6107787;23;20006;-94
2023/04/28 16:25:03;;;;;;;37.85;17.77;;;;;;;;;;6088410;23;20029;-95
2023/04/28 16:27:30;;;;;;;31.15;18.38;;;;;;;;;;6092428;23;20002;-95
2023/04/28 16:29:57;;;;;;;35.00;19.35;;;;;;;;;;6114182;23;20013;-94
2023/04/28 16:32:23;;;;;;;38.35;18.98;;;;;;;;;;6089968;23;20014;-94
2023/04/28 16:34:50;;;;;;;40.30;18.88;;;;;;;;;;6114153;23;20017;-93
2023/04/28 16:37:19;;;;;;;37.90;19.70;;;;;;;;;;6088375;23;20010;-95
2023/04/28 16:39:45;;;;;;;34.05;18.98;;;;;;;;;;6088559;23;20010;-93
2023/04/28 16:42:12;;;;;;;36.95;19.85;;;;;;;;;;6107547;23;20016;-94
2023/04/28 16:44:38;;;;;;;36.00;19.10;;;;;;;;;;6083976;23;20097;-94
2023/04/28 16:47:04;;;;;;;33.90;18.63;;;;;;;;;;6082698;23;20076;-94
2023/04/28 16:49:31;;;;;;;34.65;18.63;;;;;;;;;;6081827;23;20539;-95
2023/04/28 16:52:08;;;;;;;37.22;18.52;;;;;;;;;;6082764;23;20010;-95
2023/04/28 16:54:34;;;;;;;35.92;19.00;;;;;;;;;;6107157;23;20387;-96
2023/04/28 16:57:07;;;;;;;37.30;18.92;;;;;;;;;;6106933;23;20016;-95
2023/04/28 16:59:37;;;;;;;39.58;19.75;;;;;;;;;;6086063;23;20010;-95
2023/04/28 17:02:04;;;;;;;35.30;18.77;;;;;;;;;;6084594;23;20375;-95
2023/04/28 17:04:33;;;;;;;32.67;17.73;;;;;;;;;;6106598;23;20037;-96
2023/04/28 17:07:03;;;;;;;37.67;18.48;;;;;;;;;;6080449;23;20047;-95
2023/04/28 17:09:31;;;;;;;36.17;19.35;;;;;;;;;;6081512;23;20041;-95
2023/04/28 17:12:02;;;;;;;34.83;18.40;;;;;;;;;;6103803;23;20010;-95